Time;durP1;ratioP1;P1;durP2;ratioP2;P2;SDS_P1;SDS_P2;PMS_P1;PMS_P2;Temp;Humidity;BMP_temperature;BMP_pressure;BME280_temperature;BME280_humidity;BME280_pressure;Samples;Min_cycle;Max_cycle;Signal;HPM_P1;HPM_P2
2022/09/28 00:01:27;;;;;;;7.28;4.97;;;7.80;99.90;;;;;;4866551;29;20056;-69
2022/09/28 00:03:58;;;;;;;7.72;4.53;;;7.80;99.90;;;;;;4850942;29;20064;-68
2022/09/28 00:06:27;;;;;;;9.48;4.63;;;7.80;99.90;;;;;;4855728;29;20055;-68
2022/09/28 00:08:53;;;;;;;8.85;4.90;;;7.80;99.90;;;;;;4869592;29;20447;-69
2022/09/28 00:11:21;;;;;;;8.57;4.88;;;7.80;99.90;;;;;;4861855;29;20056;-72
2022/09/28 00:13:52;;;;;;;7.22;4.97;;;7.70;99.90;;;;;;4867167;29;20105;-71
2022/09/28 00:16:20;;;;;;;7.45;5.15;;;7.80;99.90;;;;;;4865864;29;20780;-68
2022/09/28 00:18:47;;;;;;;9.30;5.75;;;7.90;99.90;;;;;;4867476;29;20163;-72
2022/09/28 00:21:15;;;;;;;9.20;5.93;;;7.80;99.90;;;;;;4834649;29;20049;-71
2022/09/28 00:26:28;;;;;;;8.27;6.10;;;7.80;99.90;;;;;;4866799;29;20095;-68
2022/09/28 00:28:57;;;;;;;7.45;5.57;;;7.80;99.90;;;;;;4867696;29;20053;-70
2022/09/28 00:31:25;;;;;;;8.75;5.70;;;7.80;99.90;;;;;;4866296;29;20045;-71
2022/09/28 00:33:51;;;;;;;8.00;5.50;;;7.80;99.90;;;;;;4879309;29;20044;-71
2022/09/28 00:36:18;;;;;;;7.85;5.72;;;7.80;99.90;;;;;;4862265;29;20045;-70
2022/09/28 00:38:45;;;;;;;11.45;5.95;;;7.80;99.90;;;;;;4866142;29;20045;-69
2022/09/28 00:41:11;;;;;;;13.65;6.25;;;7.70;99.90;;;;;;4863755;29;20053;-71
2022/09/28 00:43:37;;;;;;;9.23;6.63;;;7.70;99.90;;;;;;4864466;29;20059;-71
2022/09/28 00:46:11;;;;;;;11.55;6.40;;;7.70;99.90;;;;;;4864354;29;20086;-72
2022/09/28 00:48:39;;;;;;;9.57;6.18;;;7.70;99.90;;;;;;4867445;29;21007;-71
2022/09/28 00:51:09;;;;;;;8.68;5.93;;;7.70;99.90;;;;;;4866106;29;20059;-67
2022/09/28 00:53:38;;;;;;;8.43;6.03;;;7.70;99.90;;;;;;4867271;29;20049;-69
2022/09/28 00:56:11;;;;;;;9.10;6.28;;;7.70;99.90;;;;;;4870664;29;20049;-68
2022/09/28 00:58:45;;;;;;;8.93;6.22;;;7.70;99.90;;;;;;4878927;29;20456;-72
2022/09/28 01:01:11;;;;;;;10.13;6.80;;;7.60;99.90;;;;;;4866712;29;25788;-71
2022/09/28 01:03:43;;;;;;;9.73;6.55;;;7.60;99.90;;;;;;4855883;29;20598;-71
2022/09/28 01:06:19;;;;;;;10.95;7.45;;;7.60;99.90;;;;;;4867110;29;20056;-67
2022/09/28 01:08:49;;;;;;;10.45;7.40;;;7.60;99.90;;;;;;4879977;29;20052;-69
2022/09/28 01:11:16;;;;;;;12.07;7.20;;;7.60;99.90;;;;;;4881091;29;20088;-71
2022/09/28 01:13:42;;;;;;;10.55;6.55;;;7.60;99.90;;;;;;4867305;29;20052;-68
2022/09/28 01:16:40;;;;;;;9.90;6.63;;;7.60;99.90;;;;;;4848322;29;20053;-72
2022/09/28 01:19:43;;;;;;;8.95;6.18;;;7.60;99.90;;;;;;4858933;29;20099;-68
2022/09/28 01:22:27;;;;;;;8.88;6.53;;;7.50;99.90;;;;;;4866427;29;20108;-69
2022/09/28 01:24:57;;;;;;;9.15;6.93;;;7.50;99.90;;;;;;4865811;29;20056;-72
2022/09/28 01:27:59;;;;;;;9.18;7.18;;;7.50;99.90;;;;;;4864622;29;20136;-72
2022/09/28 01:30:25;;;;;;;10.35;7.47;;;7.50;99.90;;;;;;4854517;29;20060;-71
2022/09/28 01:33:05;;;;;;;10.68;7.97;;;7.50;99.90;;;;;;4865107;29;20053;-72
2022/09/28 01:35:35;;;;;;;11.98;7.55;;;7.50;99.90;;;;;;4866330;29;20551;-72
2022/09/28 01:38:08;;;;;;;11.98;8.00;;;7.40;99.90;;;;;;4866449;29;20060;-71
2022/09/28 01:40:35;;;;;;;12.60;8.13;;;7.50;99.90;;;;;;4853260;29;20053;-68
2022/09/28 01:43:15;;;;;;;11.35;7.70;;;7.50;99.90;;;;;;4867592;29;20060;-67
2022/09/28 01:45:47;;;;;;;11.18;8.15;;;7.50;99.90;;;;;;4879262;29;20041;-69
2022/09/28 01:48:22;;;;;;;13.35;8.13;;;7.50;99.90;;;;;;4880221;29;20774;-67
2022/09/28 01:50:51;;;;;;;10.25;8.73;;;7.50;99.90;;;;;;4863336;29;20633;-69
2022/09/28 01:53:21;;;;;;;14.30;8.57;;;7.50;99.90;;;;;;4866581;29;20185;-71
2022/09/28 01:55:54;;;;;;;13.75;8.50;;;7.50;99.90;;;;;;4880411;29;20045;-72
2022/09/28 01:58:43;;;;;;;10.13;8.52;;;7.50;99.90;;;;;;4869028;29;20481;-71
2022/09/28 02:01:17;;;;;;;10.15;8.07;;;7.50;99.90;;;;;;4869098;29;20103;-72
2022/09/28 02:04:19;;;;;;;10.25;8.35;;;7.50;99.90;;;;;;4866856;29;20052;-68
2022/09/28 02:06:55;;;;;;;14.68;9.27;;;7.50;99.90;;;;;;4851886;29;20060;-68
2022/09/28 02:09:27;;;;;;;12.75;9.10;;;7.50;99.90;;;;;;4870160;29;20056;-67
2022/09/28 02:11:58;;;;;;;11.43;8.63;;;7.50;99.90;;;;;;4867050;29;20057;-68
2022/09/28 02:14:27;;;;;;;13.82;8.80;;;7.50;99.90;;;;;;4869668;29;20081;-68
2022/09/28 02:16:54;;;;;;;11.43;8.75;;;7.50;99.90;;;;;;4869485;29;20136;-67
2022/09/28 02:19:25;;;;;;;11.68;7.95;;;7.50;99.90;;;;;;4844358;29;20134;-71
2022/09/28 02:21:59;;;;;;;9.63;8.13;;;7.50;99.90;;;;;;4883236;29;20809;-72
2022/09/28 02:24:35;;;;;;;10.02;7.78;;;7.50;99.90;;;;;;4871848;29;20409;-68
2022/09/28 02:27:11;;;;;;;13.35;7.72;;;7.50;99.90;;;;;;4844391;29;20063;-71
2022/09/28 02:29:37;;;;;;;11.80;8.23;;;7.50;99.90;;;;;;4868890;29;20113;-72
2022/09/28 02:32:03;;;;;;;10.50;7.53;;;7.50;99.90;;;;;;4870721;29;20798;-68
2022/09/28 02:34:28;;;;;;;10.18;7.50;;;7.50;99.90;;;;;;4867654;29;20113;-70
2022/09/28 02:36:55;;;;;;;11.63;7.15;;;7.50;99.90;;;;;;4865312;29;20055;-72
2022/09/28 02:39:21;;;;;;;10.68;7.35;;;7.50;99.90;;;;;;4871186;29;20052;-71
2022/09/28 02:41:59;;;;;;;11.38;7.20;;;7.50;99.90;;;;;;4883634;29;20107;-69
2022/09/28 02:44:53;;;;;;;7.82;6.95;;;7.50;99.90;;;;;;4857075;29;20041;-71
2022/09/28 02:47:41;;;;;;;9.57;7.43;;;7.40;99.90;;;;;;4850587;29;20056;-68
2022/09/28 02:50:28;;;;;;;9.98;7.82;;;7.40;99.90;;;;;;4869417;29;20045;-68
2022/09/28 02:53:18;;;;;;;15.43;8.48;;;7.40;99.90;;;;;;4868859;29;20496;-69
2022/09/28 02:56:03;;;;;;;11.07;8.02;;;7.40;99.90;;;;;;4873310;29;20060;-70
2022/09/28 02:58:50;;;;;;;10.02;8.13;;;7.40;99.90;;;;;;4882371;29;20072;-71
2022/09/28 03:01:57;;;;;;;11.15;8.55;;;7.30;99.90;;;;;;4874123;29;20052;-71
2022/09/28 03:04:49;;;;;;;8.77;6.82;;;7.30;99.90;;;;;;4870229;29;20052;-71
2022/09/28 03:07:31;;;;;;;9.48;7.00;;;7.30;99.90;;;;;;4872310;29;20056;-69
2022/09/28 03:10:00;;;;;;;9.90;6.57;;;7.30;99.90;;;;;;4868396;29;20054;-69
2022/09/28 03:12:28;;;;;;;9.27;6.82;;;7.20;99.90;;;;;;4870878;29;20064;-72
2022/09/28 03:15:19;;;;;;;9.50;6.68;;;7.20;99.90;;;;;;4870486;29;20050;-72
2022/09/28 03:17:45;;;;;;;9.82;6.72;;;7.20;99.90;;;;;;4875093;29;20064;-72
2022/09/28 03:20:11;;;;;;;7.63;6.55;;;7.10;99.90;;;;;;4878255;29;20369;-71
2022/09/28 03:22:38;;;;;;;7.30;6.45;;;7.10;99.90;;;;;;4867102;29;20084;-68
2022/09/28 03:25:06;;;;;;;7.00;5.70;;;7.10;99.90;;;;;;4886923;29;20108;-73
2022/09/28 03:27:32;;;;;;;9.73;5.68;;;7.00;99.90;;;;;;4860648;29;20652;-71
2022/09/28 03:29:58;;;;;;;89.95;7.90;;;7.00;99.90;;;;;;4855598;29;20063;-71
2022/09/28 03:32:23;;;;;;;27.55;6.65;;;6.90;99.90;;;;;;4868906;29;20049;-72
2022/09/28 03:34:49;;;;;;;24.92;6.95;;;6.90;99.90;;;;;;4855045;29;20095;-71
2022/09/28 03:37:15;;;;;;;12.77;6.72;;;6.90;99.90;;;;;;4877730;29;20048;-68
2022/09/28 03:39:41;;;;;;;8.65;6.88;;;6.80;99.90;;;;;;4856450;29;20049;-68
2022/09/28 03:42:07;;;;;;;12.90;7.65;;;6.80;99.90;;;;;;4844335;29;20092;-73
2022/09/28 03:44:32;;;;;;;9.88;7.72;;;6.80;99.90;;;;;;4869681;29;20191;-68
2022/09/28 03:46:58;;;;;;;9.82;7.30;;;6.80;99.90;;;;;;4854246;29;20484;-72
2022/09/28 03:49:24;;;;;;;12.25;8.77;;;6.80;99.90;;;;;;4882412;29;20045;-73
2022/09/28 03:51:50;;;;;;;13.00;8.63;;;6.80;99.90;;;;;;4870430;29;20123;-72
2022/09/28 03:54:16;;;;;;;12.30;9.32;;;6.80;99.90;;;;;;4870226;29;20076;-72
2022/09/28 03:56:41;;;;;;;13.88;9.18;;;6.70;99.90;;;;;;4885091;29;20049;-70
2022/09/28 03:59:07;;;;;;;42.20;10.35;;;6.80;99.90;;;;;;4869027;29;20056;-70
2022/09/28 04:01:33;;;;;;;29.05;10.55;;;6.80;99.90;;;;;;4857058;29;20158;-70
2022/09/28 04:03:59;;;;;;;39.08;11.00;;;6.80;99.90;;;;;;4866103;29;20053;-72
2022/09/28 04:06:25;;;;;;;32.05;8.77;;;6.80;99.90;;;;;;4871349;29;20050;-67
2022/09/28 04:08:51;;;;;;;26.60;9.43;;;6.80;99.90;;;;;;4872804;29;20136;-70
2022/09/28 04:11:17;;;;;;;31.40;9.40;;;6.80;99.90;;;;;;4866609;29;21207;-69
2022/09/28 04:13:46;;;;;;;28.60;8.20;;;6.80;99.90;;;;;;4872739;29;20044;-72
2022/09/28 04:16:12;;;;;;;40.10;8.55;;;6.80;99.90;;;;;;4865774;29;20093;-72
2022/09/28 04:18:38;;;;;;;45.70;8.10;;;6.70;99.90;;;;;;4855888;29;20052;-68
2022/09/28 04:21:06;;;;;;;21.25;8.10;;;6.80;99.90;;;;;;4870123;29;20080;-71
2022/09/28 04:23:38;;;;;;;21.98;7.93;;;6.70;99.90;;;;;;4864754;29;20106;-73
2022/09/28 04:26:06;;;;;;;19.25;7.47;;;6.70;99.90;;;;;;4869924;29;20112;-70
2022/09/28 04:31:21;;;;;;;17.25;7.60;;;6.70;99.90;;;;;;4866762;29;20049;-72
2022/09/28 04:33:46;;;;;;;21.77;7.22;;;6.70;99.90;;;;;;4865472;29;20053;-72
2022/09/28 04:36:13;;;;;;;29.65;7.10;;;6.70;99.90;;;;;;4872555;29;20057;-72
2022/09/28 04:38:39;;;;;;;16.00;7.15;;;6.70;99.90;;;;;;4867218;29;20072;-73
2022/09/28 04:41:06;;;;;;;14.23;7.55;;;6.70;99.90;;;;;;4871137;29;20076;-68
2022/09/28 04:43:32;;;;;;;13.55;7.20;;;6.70;99.90;;;;;;4838787;29;20056;-69
2022/09/28 04:46:00;;;;;;;23.50;7.53;;;6.70;99.90;;;;;;4853673;29;20049;-69
2022/09/28 04:48:27;;;;;;;13.90;7.03;;;6.70;99.90;;;;;;4870433;29;20470;-72
2022/09/28 04:50:58;;;;;;;14.95;7.55;;;6.60;99.90;;;;;;4871330;29;20051;-71
2022/09/28 04:53:25;;;;;;;21.40;8.00;;;6.70;99.90;;;;;;4866948;29;20049;-69
2022/09/28 04:56:07;;;;;;;15.95;7.60;;;6.70;99.90;;;;;;4871799;29;20041;-72
2022/09/28 04:58:36;;;;;;;11.40;7.20;;;6.70;99.90;;;;;;4866471;29;20048;-67
2022/09/28 05:01:09;;;;;;;9.15;7.68;;;6.60;99.90;;;;;;4866070;29;20053;-72
2022/09/28 05:03:35;;;;;;;10.68;8.20;;;6.60;99.90;;;;;;4852688;29;20049;-70
2022/09/28 05:06:01;;;;;;;9.90;7.85;;;6.60;99.90;;;;;;4878319;29;20130;-72
2022/09/28 05:08:27;;;;;;;11.13;7.65;;;6.60;99.90;;;;;;4877298;29;20063;-68
2022/09/28 05:11:01;;;;;;;10.57;8.30;;;6.60;99.90;;;;;;4864821;29;20064;-68
2022/09/28 05:13:29;;;;;;;9.23;7.60;;;6.60;99.90;;;;;;4867957;29;20271;-72
2022/09/28 05:15:56;;;;;;;11.45;8.75;;;6.60;99.90;;;;;;4868533;29;20055;-68
2022/09/28 05:18:23;;;;;;;14.60;9.27;;;6.70;99.90;;;;;;4865789;29;20057;-72
2022/09/28 05:20:49;;;;;;;11.50;8.35;;;6.70;99.90;;;;;;4838309;29;20056;-68
2022/09/28 05:23:16;;;;;;;13.30;8.45;;;6.70;99.90;;;;;;4862602;29;20060;-69
2022/09/28 05:25:44;;;;;;;10.98;8.27;;;6.70;99.90;;;;;;4841463;29;20052;-70
2022/09/28 05:28:10;;;;;;;13.60;9.60;;;6.70;99.90;;;;;;4854762;29;20050;-73
2022/09/28 05:30:36;;;;;;;13.32;8.80;;;6.70;99.90;;;;;;4844751;29;21036;-71
2022/09/28 05:33:02;;;;;;;13.70;9.68;;;6.70;99.90;;;;;;4858074;29;20117;-73
2022/09/28 05:35:28;;;;;;;16.13;9.70;;;6.70;99.90;;;;;;4863934;29;20084;-71
2022/09/28 05:37:55;;;;;;;13.02;8.90;;;6.70;99.90;;;;;;4876636;29;20053;-69
2022/09/28 05:40:21;;;;;;;13.90;9.50;;;6.70;99.90;;;;;;4861455;29;20053;-72
2022/09/28 05:42:47;;;;;;;11.07;9.10;;;6.70;99.90;;;;;;4866639;29;20540;-69
2022/09/28 05:45:13;;;;;;;12.65;9.40;;;6.70;99.90;;;;;;4859378;29;20771;-72
2022/09/28 05:47:41;;;;;;;11.40;7.95;;;6.80;99.90;;;;;;4868018;29;20049;-70
2022/09/28 05:50:10;;;;;;;9.32;8.10;;;6.70;99.90;;;;;;4863909;29;20061;-71
2022/09/28 05:52:39;;;;;;;13.02;8.77;;;6.70;99.90;;;;;;4853208;29;20057;-73
2022/09/28 05:55:06;;;;;;;12.20;8.52;;;6.70;99.90;;;;;;4868764;29;20065;-70
2022/09/28 05:57:32;;;;;;;13.13;9.45;;;6.70;99.90;;;;;;4872965;29;20097;-73
2022/09/28 05:59:58;;;;;;;13.00;9.30;;;6.70;99.90;;;;;;4864336;29;21728;-69
2022/09/28 06:02:24;;;;;;;11.95;8.95;;;6.70;99.90;;;;;;4869948;29;20151;-63
2022/09/28 06:04:50;;;;;;;20.25;10.60;;;6.70;99.90;;;;;;4870757;29;20052;-63
2022/09/28 06:07:21;;;;;;;16.23;9.75;;;6.70;99.90;;;;;;4883247;29;20068;-63
2022/09/28 06:09:47;;;;;;;13.88;9.27;;;6.70;99.90;;;;;;4879102;29;20036;-62
2022/09/28 06:12:14;;;;;;;12.38;10.02;;;6.70;99.90;;;;;;4863917;29;20665;-62
2022/09/28 06:14:40;;;;;;;14.48;9.98;;;6.70;99.90;;;;;;4869688;29;21758;-63
2022/09/28 06:17:06;;;;;;;17.13;9.90;;;6.70;99.90;;;;;;4870996;29;20063;-63
2022/09/28 06:19:32;;;;;;;12.40;9.60;;;6.80;99.90;;;;;;4872045;29;20072;-63
2022/09/28 06:21:58;;;;;;;15.65;9.82;;;6.80;99.90;;;;;;4870558;29;20053;-62
2022/09/28 06:24:24;;;;;;;17.35;10.30;;;6.80;99.90;;;;;;4873454;29;20049;-63
2022/09/28 06:26:50;;;;;;;13.25;10.27;;;6.80;99.90;;;;;;4871363;29;20495;-63
2022/09/28 06:29:17;;;;;;;14.38;10.10;;;6.80;99.90;;;;;;4871340;29;20057;-62
2022/09/28 06:31:43;;;;;;;14.10;10.85;;;6.90;99.90;;;;;;4876903;29;20076;-63
2022/09/28 06:34:10;;;;;;;12.93;10.20;;;6.80;99.90;;;;;;4870011;29;20116;-63
2022/09/28 06:36:36;;;;;;;14.38;10.85;;;6.80;99.90;;;;;;4884684;29;20055;-63
2022/09/28 06:39:02;;;;;;;16.98;11.07;;;6.90;99.90;;;;;;4868429;29;20274;-63
2022/09/28 06:41:28;;;;;;;16.50;10.77;;;6.90;99.90;;;;;;4879170;29;20093;-63
2022/09/28 06:43:54;;;;;;;16.23;11.38;;;6.90;99.90;;;;;;4880550;29;20040;-62
2022/09/28 06:46:20;;;;;;;19.63;12.38;;;6.90;99.90;;;;;;4895856;29;20067;-63
2022/09/28 06:48:45;;;;;;;17.60;12.23;;;6.90;99.90;;;;;;4883650;29;20485;-63
2022/09/28 06:51:11;;;;;;;16.67;12.13;;;7.00;99.90;;;;;;4876172;29;20048;-63
2022/09/28 06:53:37;;;;;;;17.67;12.15;;;7.00;99.90;;;;;;4873099;29;20739;-62
2022/09/28 06:56:05;;;;;;;19.05;13.55;;;7.00;99.90;;;;;;4865415;29;20500;-62
2022/09/28 06:58:31;;;;;;;19.45;12.63;;;7.00;99.90;;;;;;4873633;29;20079;-62
2022/09/28 07:00:58;;;;;;;17.63;13.15;;;7.10;99.90;;;;;;4872139;29;20184;-62
2022/09/28 07:03:24;;;;;;;21.25;12.68;;;7.10;99.90;;;;;;4855002;29;20052;-63
2022/09/28 07:05:53;;;;;;;15.50;11.60;;;7.10;99.90;;;;;;4869422;29;20052;-62
2022/09/28 07:08:24;;;;;;;16.65;12.30;;;7.10;99.90;;;;;;4870204;29;20052;-63
2022/09/28 07:10:55;;;;;;;22.25;14.10;;;7.20;99.90;;;;;;4870092;29;20072;-62
2022/09/28 07:13:23;;;;;;;18.77;13.48;;;7.20;99.90;;;;;;4866617;29;20068;-64
2022/09/28 07:15:54;;;;;;;18.85;13.77;;;7.30;99.90;;;;;;4870248;29;20052;-63
2022/09/28 07:18:22;;;;;;;20.05;14.05;;;7.30;99.90;;;;;;4869801;29;20541;-64
2022/09/28 07:20:48;;;;;;;21.33;15.18;;;7.30;99.90;;;;;;4869490;29;20088;-62
2022/09/28 07:23:14;;;;;;;22.30;15.27;;;7.40;99.90;;;;;;4854313;29;20111;-64
2022/09/28 07:25:44;;;;;;;19.15;13.13;;;7.40;99.90;;;;;;4869489;29;20467;-63
2022/09/28 07:28:10;;;;;;;18.58;13.25;;;7.50;99.90;;;;;;4867650;29;20049;-62
2022/09/28 07:30:36;;;;;;;16.08;12.38;;;7.50;99.90;;;;;;4882219;29;20075;-64
2022/09/28 07:33:05;;;;;;;18.05;12.80;;;7.60;99.90;;;;;;4873073;29;20123;-64
2022/09/28 07:35:34;;;;;;;17.95;12.50;;;7.60;99.90;;;;;;4878461;29;20059;-64
2022/09/28 07:38:07;;;;;;;18.13;13.18;;;7.70;99.90;;;;;;4872370;29;20052;-63
2022/09/28 07:43:22;;;;;;;19.23;13.20;;;7.80;99.90;;;;;;4869794;29;19973;-64
2022/09/28 07:45:49;;;;;;;18.13;13.23;;;7.90;99.90;;;;;;4870457;29;20049;-64
2022/09/28 07:48:16;;;;;;;19.45;14.38;;;7.90;99.90;;;;;;4868176;29;20048;-62
2022/09/28 07:50:56;;;;;;;18.45;12.77;;;8.00;99.90;;;;;;4870869;29;20155;-62
2022/09/28 07:53:23;;;;;;;17.15;13.20;;;8.10;99.90;;;;;;4881806;29;20147;-63
2022/09/28 07:55:54;;;;;;;19.00;13.40;;;8.20;99.90;;;;;;4874233;29;20077;-63
2022/09/28 07:58:21;;;;;;;20.35;13.25;;;8.30;99.90;;;;;;4884923;29;20511;-64
2022/09/28 08:00:48;;;;;;;17.58;13.68;;;8.40;99.90;;;;;;4871251;29;20052;-64
2022/09/28 08:03:16;;;;;;;18.83;14.55;;;8.60;99.90;;;;;;4869743;29;20056;-62
2022/09/28 08:05:42;;;;;;;18.17;13.63;;;8.70;99.90;;;;;;4869433;29;20056;-63
2022/09/28 08:08:09;;;;;;;19.55;14.07;;;8.90;99.90;;;;;;4865040;29;20135;-64
2022/09/28 08:10:36;;;;;;;19.08;13.65;;;9.00;99.90;;;;;;4858636;29;20151;-64
2022/09/28 08:13:03;;;;;;;19.38;13.70;;;9.20;99.90;;;;;;4868937;29;20061;-64
2022/09/28 08:15:35;;;;;;;16.27;13.07;;;9.20;99.90;;;;;;4882136;29;20189;-64
2022/09/28 08:18:03;;;;;;;15.87;12.47;;;9.40;99.90;;;;;;4869948;29;20403;-62
2022/09/28 08:23:14;;;;;;;19.08;14.85;;;9.70;99.90;;;;;;4866985;29;20048;-62
2022/09/28 08:25:45;;;;;;;22.00;14.88;;;9.80;99.90;;;;;;4868118;29;20139;-62
2022/09/28 08:28:11;;;;;;;14.82;11.93;;;10.00;99.90;;;;;;4872953;29;20136;-63
2022/09/28 08:30:37;;;;;;;11.00;7.85;;;10.20;99.90;;;;;;4868954;29;20041;-65
2022/09/28 08:33:03;;;;;;;10.57;8.65;;;10.30;99.90;;;;;;4868840;29;20399;-62
2022/09/28 08:35:30;;;;;;;10.80;7.38;;;10.50;99.90;;;;;;4866865;29;20057;-63
2022/09/28 08:37:56;;;;;;;11.10;7.07;;;10.60;99.90;;;;;;4864895;29;20104;-64
2022/09/28 08:40:24;;;;;;;13.73;7.25;;;10.70;99.90;;;;;;4869135;29;20147;-63
2022/09/28 08:43:03;;;;;;;11.45;6.70;;;10.80;99.90;;;;;;4866897;29;20055;-65
2022/09/28 08:45:32;;;;;;;9.82;6.75;;;11.00;99.90;;;;;;4857199;29;20060;-63
2022/09/28 08:50:57;;;;;;;10.88;6.35;;;11.30;99.90;;;;;;4867880;29;20056;-65
2022/09/28 08:53:30;;;;;;;10.05;6.20;;;11.40;99.90;;;;;;4871708;29;20041;-65
2022/09/28 08:55:58;;;;;;;10.07;7.40;;;11.60;99.90;;;;;;4835207;29;20136;-64
2022/09/28 08:58:31;;;;;;;7.93;6.28;;;11.70;99.90;;;;;;4870486;29;20048;-62
2022/09/28 09:00:58;;;;;;;10.30;6.97;;;11.90;99.90;;;;;;4868522;29;20091;-63
2022/09/28 09:03:43;;;;;;;10.00;7.05;;;12.00;99.90;;;;;;4870618;29;20052;-65
2022/09/28 09:06:09;;;;;;;6.97;5.10;;;12.20;99.90;;;;;;4866547;29;20060;-64
2022/09/28 09:09:08;;;;;;;7.90;4.63;;;12.30;99.90;;;;;;4870885;29;20453;-63
2022/09/28 09:12:02;;;;;;;7.13;4.80;;;12.40;99.90;;;;;;4869558;29;20056;-64
2022/09/28 09:14:46;;;;;;;6.75;4.60;;;12.60;99.90;;;;;;4875434;29;20052;-62
2022/09/28 09:17:57;;;;;;;8.05;4.63;;;12.80;99.90;;;;;;4869349;29;20045;-63
2022/09/28 09:20:56;;;;;;;4.55;3.60;;;12.90;99.90;;;;;;4866833;29;20119;-64
2022/09/28 09:23:33;;;;;;;7.78;3.70;;;13.20;99.90;;;;;;4881564;29;20056;-65
2022/09/28 09:26:16;;;;;;;8.65;3.05;;;13.40;99.90;;;;;;4867151;29;20091;-65
2022/09/28 09:29:04;;;;;;;4.88;3.40;;;13.60;99.90;;;;;;4869413;29;20049;-65
2022/09/28 09:31:48;;;;;;;4.47;2.75;;;13.80;99.90;;;;;;4867032;29;20049;-64
2022/09/28 09:34:35;;;;;;;6.07;2.85;;;14.00;99.90;;;;;;4869658;29;20056;-65
2022/09/28 09:37:39;;;;;;;3.33;2.10;;;14.10;99.90;;;;;;4884157;29;20049;-65
2022/09/28 09:40:27;;;;;;;4.55;1.65;;;14.30;99.90;;;;;;4880928;29;20049;-65
2022/09/28 09:43:14;;;;;;;8.13;2.42;;;14.40;99.90;;;;;;4870685;29;20052;-65
2022/09/28 09:46:02;;;;;;;2.65;2.10;;;14.60;99.90;;;;;;4868745;29;20049;-64
2022/09/28 09:48:51;;;;;;;4.97;2.42;;;14.70;99.90;;;;;;4871198;29;20053;-65
2022/09/28 09:51:40;;;;;;;5.35;2.25;;;14.90;99.90;;;;;;4866414;29;20049;-64
2022/09/28 09:54:17;;;;;;;3.85;1.92;;;15.10;99.90;;;;;;4869067;29;20056;-64
2022/09/28 09:56:58;;;;;;;5.55;1.60;;;15.30;99.90;;;;;;4870968;29;20983;-63
2022/09/28 09:59:32;;;;;;;3.83;1.02;;;15.40;99.90;;;;;;4871534;29;20052;-63
2022/09/28 10:02:20;;;;;;;3.75;1.10;;;15.50;99.90;;;;;;4868554;29;20053;-63
2022/09/28 10:04:48;;;;;;;2.80;1.10;;;15.50;99.90;;;;;;4869430;29;20071;-65
2022/09/28 10:07:40;;;;;;;2.05;1.20;;;15.50;99.90;;;;;;4867485;29;20106;-65
2022/09/28 10:10:14;;;;;;;1.58;1.17;;;15.60;99.90;;;;;;4868784;29;20057;-65
2022/09/28 10:12:40;;;;;;;2.95;1.10;;;15.80;99.90;;;;;;4872770;29;20091;-63
2022/09/28 10:15:07;;;;;;;3.38;1.17;;;15.80;99.90;;;;;;4868090;29;20056;-65
2022/09/28 10:17:36;;;;;;;2.22;1.10;;;15.80;99.90;;;;;;4873163;29;20075;-65
2022/09/28 10:20:03;;;;;;;4.75;1.13;;;15.60;99.90;;;;;;4867864;29;20182;-65
2022/09/28 10:22:30;;;;;;;6.95;1.95;;;15.70;99.90;;;;;;4869389;29;20104;-65
2022/09/28 10:24:58;;;;;;;4.15;0.93;;;15.90;99.90;;;;;;4852475;29;20399;-65
2022/09/28 10:27:32;;;;;;;2.78;0.85;;;16.20;99.90;;;;;;4867429;29;20069;-64
2022/09/28 10:30:10;;;;;;;2.67;1.10;;;16.40;99.90;;;;;;4873902;29;20611;-63
2022/09/28 10:32:43;;;;;;;1.23;0.70;;;16.70;99.90;;;;;;4876333;29;20524;-65
2022/09/28 10:35:18;;;;;;;2.53;0.90;;;16.90;99.90;;;;;;4871105;29;20119;-63
2022/09/28 10:37:53;;;;;;;6.72;1.40;;;17.10;99.90;;;;;;4872477;29;20076;-64
2022/09/28 10:40:54;;;;;;;3.35;0.90;;;17.30;99.90;;;;;;4878895;29;20060;-65
2022/09/28 10:43:29;;;;;;;4.40;0.60;;;17.60;99.90;;;;;;4881880;29;20092;-65
2022/09/28 10:46:22;;;;;;;2.95;1.02;;;17.70;99.90;;;;;;4879795;29;20424;-66
2022/09/28 10:48:56;;;;;;;3.67;0.85;;;17.90;99.90;;;;;;4875304;29;20040;-66
2022/09/28 10:51:48;;;;;;;2.47;0.95;;;17.90;99.90;;;;;;4873463;29;20131;-66
2022/09/28 10:54:23;;;;;;;2.38;0.82;;;17.70;99.90;;;;;;4871653;29;20045;-64
2022/09/28 10:56:50;;;;;;;0.73;0.73;;;17.50;99.90;;;;;;4870194;29;20560;-65
2022/09/28 10:59:24;;;;;;;0.52;0.52;;;17.20;99.90;;;;;;4871684;29;20120;-65
2022/09/28 11:01:58;;;;;;;1.90;0.40;;;17.10;99.90;;;;;;4869443;29;20053;-66
2022/09/28 11:04:27;;;;;;;0.88;0.50;;;17.00;99.90;;;;;;4884452;29;20408;-66
2022/09/28 11:06:58;;;;;;;1.45;0.60;;;16.90;99.90;;;;;;4858845;29;20130;-64
2022/09/28 11:09:33;;;;;;;2.83;0.93;;;16.90;99.90;;;;;;4869257;29;20445;-66
2022/09/28 11:12:00;;;;;;;1.80;0.60;;;16.80;99.90;;;;;;4867941;29;20065;-64
2022/09/28 11:14:35;;;;;;;1.42;0.40;;;17.10;99.90;;;;;;4864587;29;20052;-68
2022/09/28 11:17:32;;;;;;;0.68;0.40;;;17.30;99.90;;;;;;4866265;29;20048;-68
2022/09/28 11:20:01;;;;;;;1.50;0.40;;;17.40;99.90;;;;;;4869848;29;20193;-64
2022/09/28 11:22:31;;;;;;;2.05;0.50;;;17.30;99.90;;;;;;4875069;29;20083;-68
2022/09/28 11:25:15;;;;;;;1.35;0.60;;;17.20;99.90;;;;;;4868774;29;20057;-65
2022/09/28 11:27:54;;;;;;;0.75;0.40;;;17.10;99.60;;;;;;4870472;29;21889;-66
2022/09/28 11:30:25;;;;;;;0.63;0.47;;;17.00;99.90;;;;;;4872023;29;20072;-63
2022/09/28 11:32:53;;;;;;;4.30;0.75;;;16.90;99.90;;;;;;4865369;29;20761;-63
2022/09/28 11:35:34;;;;;;;1.77;0.50;;;16.80;99.80;;;;;;4869326;29;20044;-63
2022/09/28 11:38:10;;;;;;;2.13;0.80;;;16.60;99.80;;;;;;4869323;29;20136;-63
2022/09/28 11:41:05;;;;;;;2.50;0.40;;;16.60;99.90;;;;;;4868988;29;20060;-63
2022/09/28 11:43:40;;;;;;;1.95;0.60;;;16.50;99.90;;;;;;4858367;29;20128;-63
2022/09/28 11:46:18;;;;;;;2.30;0.50;;;16.50;99.90;;;;;;4869510;29;20053;-63
2022/09/28 11:48:53;;;;;;;1.45;0.57;;;16.40;99.90;;;;;;4876246;29;20091;-63
2022/09/28 11:51:29;;;;;;;1.10;0.65;;;16.30;99.90;;;;;;4870141;29;20676;-63
2022/09/28 11:54:00;;;;;;;1.85;0.60;;;16.20;99.90;;;;;;4870759;29;20056;-65
2022/09/28 11:56:37;;;;;;;2.60;1.15;;;16.10;99.90;;;;;;4875797;29;20348;-65
2022/09/28 11:59:09;;;;;;;1.20;0.60;;;16.00;99.90;;;;;;4867419;29;20133;-70
2022/09/28 12:01:44;;;;;;;2.75;0.98;;;15.90;99.90;;;;;;4871442;29;22484;-66
2022/09/28 12:04:16;;;;;;;1.60;0.63;;;15.90;99.90;;;;;;4869486;29;20156;-69
2022/09/28 12:07:09;;;;;;;0.50;0.50;;;16.00;99.90;;;;;;4868079;29;20061;-63
2022/09/28 12:10:03;;;;;;;1.95;0.70;;;16.30;99.90;;;;;;4873895;29;20124;-71
2022/09/28 12:12:38;;;;;;;0.70;0.60;;;16.70;99.90;;;;;;4881424;29;20584;-67
2022/09/28 12:15:18;;;;;;;3.70;0.73;;;16.90;99.60;;;;;;4870055;29;22323;-67
2022/09/28 12:18:00;;;;;;;1.92;0.47;;;16.90;99.20;;;;;;4865462;29;20139;-65
2022/09/28 12:20:45;;;;;;;1.30;0.65;;;16.80;98.70;;;;;;4871190;29;20055;-66
2022/09/28 12:23:17;;;;;;;0.55;0.55;;;16.50;98.30;;;;;;4861069;29;20057;-66
2022/09/28 12:25:48;;;;;;;1.47;0.70;;;16.30;98.90;;;;;;4880723;29;20135;-67
2022/09/28 12:28:59;;;;;;;1.38;0.65;;;16.10;99.20;;;;;;4867989;29;20049;-66
2022/09/28 12:31:30;;;;;;;1.13;0.60;;;16.00;98.90;;;;;;4866111;29;20067;-67
2022/09/28 12:33:56;;;;;;;2.72;0.65;;;15.90;99.80;;;;;;4866184;29;20084;-65
2022/09/28 12:36:40;;;;;;;1.88;0.60;;;15.80;99.70;;;;;;4865620;29;20124;-67
2022/09/28 12:39:32;;;;;;;2.70;0.70;;;15.70;99.40;;;;;;4866839;29;21749;-67
2022/09/28 12:42:07;;;;;;;0.90;0.50;;;15.60;99.50;;;;;;4863678;29;20056;-66
2022/09/28 12:45:01;;;;;;;0.93;0.60;;;15.50;99.90;;;;;;4869490;29;20052;-65
2022/09/28 12:48:01;;;;;;;3.33;0.70;;;15.40;99.90;;;;;;4867473;29;20060;-67
2022/09/28 12:51:02;;;;;;;0.52;0.30;;;15.30;99.90;;;;;;4868714;29;20158;-65
2022/09/28 12:53:43;;;;;;;1.48;0.50;;;15.10;99.90;;;;;;4884781;29;20512;-66
2022/09/28 12:56:23;;;;;;;1.60;0.50;;;15.00;99.90;;;;;;4879703;29;20049;-67
2022/09/28 12:59:12;;;;;;;0.47;0.40;;;14.90;99.90;;;;;;4868243;29;20488;-65
2022/09/28 13:02:00;;;;;;;1.92;0.30;;;15.10;99.90;;;;;;4868804;29;20533;-67
2022/09/28 13:04:38;;;;;;;2.22;0.30;;;15.40;99.90;;;;;;4855246;29;20052;-67
2022/09/28 13:07:06;;;;;;;0.88;0.30;;;15.90;99.90;;;;;;4867664;29;20057;-67
2022/09/28 13:09:54;;;;;;;0.30;0.30;;;16.40;99.50;;;;;;4868237;29;20112;-66
2022/09/28 13:12:38;;;;;;;1.38;0.50;;;16.90;98.70;;;;;;4862759;29;20072;-66
2022/09/28 13:15:15;;;;;;;0.93;0.40;;;17.50;98.50;;;;;;4865434;29;20052;-66
2022/09/28 13:18:01;;;;;;;2.70;0.50;;;18.00;97.80;;;;;;4854944;29;20093;-68
2022/09/28 13:20:55;;;;;;;1.58;0.40;;;18.50;97.10;;;;;;4865979;29;20511;-65
2022/09/28 13:23:27;;;;;;;0.80;0.30;;;19.00;96.00;;;;;;4866721;29;20052;-67
2022/09/28 13:26:13;;;;;;;2.10;0.43;;;19.30;95.20;;;;;;4859759;29;20056;-65
2022/09/28 13:28:41;;;;;;;1.42;0.50;;;19.50;94.70;;;;;;4860065;29;20056;-66
2022/09/28 13:31:09;;;;;;;3.03;0.52;;;19.80;94.00;;;;;;4862171;29;21237;-66